createdAt,value
2023-05-14T00:02:08.968Z,99995.56
2023-05-14T00:04:35.924Z,100037.16
2023-05-14T00:07:02.840Z,100027.50
2023-05-14T00:09:30.457Z,99927.53
2023-05-14T00:11:57.348Z,100009.53
2023-05-14T00:14:24.177Z,100042.66
2023-05-14T00:16:54.059Z,100082.19
2023-05-14T00:19:20.924Z,99919.50
2023-05-14T00:21:48.618Z,99959.91
2023-05-14T00:24:15.418Z,100067.75
2023-05-14T00:26:42.144Z,100064.19
2023-05-14T00:29:08.921Z,100068.81
2023-05-14T00:31:35.797Z,100078.44
2023-05-14T00:34:03.195Z,100086.19
2023-05-14T00:36:31.441Z,100056.75
2023-05-14T00:38:58.202Z,100070.47
2023-05-14T00:41:24.987Z,100021.25
2023-05-14T00:43:51.814Z,100077.72
2023-05-14T00:46:18.859Z,100076.78
2023-05-14T00:48:46.218Z,100080.22
2023-05-14T00:51:13.244Z,100075.00
2023-05-14T00:53:40.078Z,100069.66
2023-05-14T00:56:08.259Z,100024.81
2023-05-14T00:58:35.189Z,100072.38
2023-05-14T01:01:02.331Z,100024.91
2023-05-14T01:03:31.901Z,99789.91
2023-05-14T01:06:09.951Z,100127.66
2023-05-14T01:08:44.815Z,100075.31
2023-05-14T01:11:13.908Z,100077.31
2023-05-14T01:14:05.094Z,100077.56
2023-05-14T01:16:34.118Z,100083.66
2023-05-14T01:19:02.775Z,100028.16
2023-05-14T01:21:40.843Z,100048.66
2023-05-14T01:24:08.483Z,99975.91
2023-05-14T01:26:36.581Z,100052.19
2023-05-14T01:29:12.284Z,100074.75
2023-05-14T01:31:43.095Z,100085.84
2023-05-14T01:34:12.739Z,100072.47
2023-05-14T01:36:41.496Z,100075.63
2023-05-14T01:39:09.726Z,100011.88
2023-05-14T01:41:39.366Z,100079.19
2023-05-14T01:44:06.361Z,100073.28
2023-05-14T01:46:33.793Z,100076.59
2023-05-14T01:49:01.232Z,100053.94
2023-05-14T01:51:28.286Z,100084.69
2023-05-14T01:53:55.056Z,100072.31
2023-05-14T01:56:23.806Z,100049.78
2023-05-14T01:58:50.573Z,99994.91
2023-05-14T02:01:17.486Z,100068.47
2023-05-14T02:03:44.351Z,100042.38
2023-05-14T02:06:11.135Z,99944.28
2023-05-14T02:08:38.106Z,100088.88
2023-05-14T02:11:04.893Z,100074.25
2023-05-14T02:13:31.662Z,100033.41
2023-05-14T02:15:58.827Z,100073.84
2023-05-14T02:18:25.737Z,99784.09
2023-05-14T02:20:52.862Z,100007.97
2023-05-14T02:23:25.600Z,100013.41
2023-05-14T02:25:58.108Z,100067.38
2023-05-14T02:28:24.895Z,100074.63
2023-05-14T02:30:51.712Z,100006.63
2023-05-14T02:33:18.720Z,100079.44
2023-05-14T02:35:45.541Z,99973.94
2023-05-14T02:38:13.334Z,100079.00
2023-05-14T02:40:40.103Z,100064.69
2023-05-14T02:43:07.062Z,100050.56
2023-05-14T02:45:33.878Z,99999.19
2023-05-14T02:48:00.736Z,100096.66
2023-05-14T02:50:27.674Z,100084.03
2023-05-14T02:52:54.497Z,100085.44
2023-05-14T02:55:21.849Z,100080.22
2023-05-14T02:57:48.688Z,99974.78
2023-05-14T03:00:15.719Z,100053.19
2023-05-14T03:02:43.680Z,100089.34
2023-05-14T03:05:10.863Z,100038.16
2023-05-14T03:07:37.815Z,99990.41
2023-05-14T03:10:05.863Z,100103.47
2023-05-14T03:12:32.644Z,99999.63
2023-05-14T03:14:59.388Z,100096.78
2023-05-14T03:17:26.295Z,100121.31
2023-05-14T03:19:53.070Z,100075.94
2023-05-14T03:22:19.993Z,100104.41
2023-05-14T03:24:48.041Z,100101.78
2023-05-14T03:27:15.017Z,100025.41
2023-05-14T03:29:41.859Z,100067.47
2023-05-14T03:32:08.705Z,100062.78
2023-05-14T03:34:35.984Z,100079.91
2023-05-14T03:37:02.873Z,100064.25
2023-05-14T03:39:29.681Z,99989.41
2023-05-14T03:41:58.851Z,100068.78
2023-05-14T03:44:25.820Z,100105.31
2023-05-14T03:46:53.004Z,100071.06
2023-05-14T03:49:19.818Z,100040.38
2023-05-14T03:51:46.665Z,99963.72
2023-05-14T03:54:13.578Z,100071.88
2023-05-14T03:56:40.434Z,100088.44
2023-05-14T03:59:07.259Z,100013.28
2023-05-14T04:01:34.324Z,100086.50
2023-05-14T04:04:01.264Z,100099.66
2023-05-14T04:06:28.168Z,100095.31
2023-05-14T04:08:55.032Z,100069.72
2023-05-14T04:11:22.278Z,100096.59
2023-05-14T04:13:49.452Z,100103.81
2023-05-14T04:16:16.260Z,100103.34
2023-05-14T04:18:43.101Z,100056.63
2023-05-14T04:21:09.950Z,100009.34
2023-05-14T04:23:36.752Z,100056.25
2023-05-14T04:26:04.814Z,100076.97
2023-05-14T04:28:31.597Z,100061.41
2023-05-14T04:30:58.371Z,99998.13
2023-05-14T04:33:25.388Z,100090.88
2023-05-14T04:35:53.050Z,99983.44
2023-05-14T04:38:19.880Z,100105.19
2023-05-14T04:40:46.662Z,100103.19
2023-05-14T04:43:13.424Z,100108.78
2023-05-14T04:45:41.085Z,100074.25
2023-05-14T04:48:08.583Z,100086.28
2023-05-14T04:50:35.612Z,100099.63
2023-05-14T04:53:03.198Z,100116.19
2023-05-14T04:55:30.100Z,100040.19
2023-05-14T04:57:57.006Z,100124.91
2023-05-14T05:00:24.197Z,100103.31
2023-05-14T05:02:51.343Z,100103.75
2023-05-14T05:05:18.247Z,100083.16
2023-05-14T05:07:45.017Z,100127.13
2023-05-14T05:10:11.945Z,100081.91
2023-05-14T05:12:38.718Z,100096.75
2023-05-14T05:15:06.288Z,100000.34
2023-05-14T05:17:33.190Z,100013.34
2023-05-14T05:20:00.119Z,100103.06
2023-05-14T05:22:27.082Z,100097.75
2023-05-14T05:24:53.886Z,99847.91
2023-05-14T05:27:21.993Z,100023.59
2023-05-14T05:29:48.953Z,100102.53
2023-05-14T05:32:15.993Z,100083.16
2023-05-14T05:34:42.872Z,100098.88
2023-05-14T05:37:12.769Z,100103.78
2023-05-14T05:39:40.079Z,100103.31
2023-05-14T05:42:07.313Z,100094.03
2023-05-14T05:44:34.220Z,100094.47
2023-05-14T05:47:01.995Z,100075.63
2023-05-14T05:49:31.705Z,100078.28
2023-05-14T05:51:58.505Z,100094.94
2023-05-14T05:54:25.636Z,100019.84
2023-05-14T05:56:52.397Z,100091.66
2023-05-14T05:59:19.156Z,100109.28
2023-05-14T06:01:46.043Z,100072.16
2023-05-14T06:04:12.790Z,100106.34
2023-05-14T06:06:39.658Z,100043.41
2023-05-14T06:09:07.106Z,100102.47
2023-05-14T06:11:34.185Z,100057.13
2023-05-14T06:14:01.679Z,100086.03
2023-05-14T06:17:00.951Z,100087.91
2023-05-14T06:19:28.906Z,100071.59
2023-05-14T06:21:56.300Z,100120.41
2023-05-14T06:24:24.074Z,100099.13
2023-05-14T06:27:11.685Z,100068.72
2023-05-14T06:29:38.643Z,100082.38
2023-05-14T06:32:05.953Z,100090.94
2023-05-14T06:34:32.763Z,100088.53
2023-05-14T06:37:00.320Z,100086.44
2023-05-14T06:39:27.068Z,100037.06
2023-05-14T06:41:53.780Z,100080.56
2023-05-14T06:44:23.147Z,99964.44
2023-05-14T06:46:49.910Z,99880.59
2023-05-14T06:49:17.104Z,100075.81
2023-05-14T06:51:43.944Z,100072.56
2023-05-14T06:54:10.677Z,100072.47
2023-05-14T06:56:37.574Z,100051.00
2023-05-14T06:59:04.367Z,100058.94
2023-05-14T07:01:31.282Z,100081.38
2023-05-14T07:03:58.127Z,100077.63
2023-05-14T07:06:24.935Z,100076.97
2023-05-14T07:08:51.758Z,100001.63
2023-05-14T07:11:18.551Z,100029.00
2023-05-14T07:13:50.746Z,100062.81
2023-05-14T07:16:17.500Z,100066.78
2023-05-14T07:18:48.410Z,100016.22
2023-05-14T07:21:18.766Z,100067.66
2023-05-14T07:23:47.054Z,100067.69
2023-05-14T07:26:17.194Z,100075.34
2023-05-14T07:28:43.983Z,100067.03
2023-05-14T07:31:11.157Z,100075.16
2023-05-14T07:33:38.512Z,100075.31
2023-05-14T07:36:05.604Z,100083.78
2023-05-14T07:38:32.809Z,100067.41
2023-05-14T07:41:00.212Z,100036.38
2023-05-14T07:43:27.784Z,100060.56
2023-05-14T07:45:56.395Z,100054.41
2023-05-14T07:48:23.930Z,100040.81
2023-05-14T07:50:51.887Z,100031.03
2023-05-14T07:53:19.724Z,100060.28
2023-05-14T07:55:48.797Z,99978.66
2023-05-14T07:58:16.275Z,100034.44
2023-05-14T08:00:43.312Z,100015.56
2023-05-14T08:03:10.395Z,100028.75
2023-05-14T08:05:37.576Z,100013.13
2023-05-14T08:08:05.533Z,100050.53
2023-05-14T08:10:32.346Z,100052.19
2023-05-14T08:12:59.210Z,100042.22
2023-05-14T08:15:27.933Z,100041.84
2023-05-14T08:17:55.403Z,100044.59
2023-05-14T08:20:24.197Z,100043.63
2023-05-14T08:22:51.275Z,100037.09
2023-05-14T08:25:18.165Z,100034.16
2023-05-14T08:27:45.390Z,100033.41
2023-05-14T08:30:12.688Z,99976.00
2023-05-14T08:32:39.981Z,99870.63
2023-05-14T08:35:07.656Z,100014.47
2023-05-14T08:37:34.634Z,100041.75
2023-05-14T08:40:01.842Z,100014.06
2023-05-14T08:42:29.450Z,100012.66
2023-05-14T08:45:03.867Z,100021.34
2023-05-14T08:47:31.318Z,100020.88
2023-05-14T08:50:04.528Z,99997.09
2023-05-14T08:52:31.880Z,99960.25
2023-05-14T08:55:04.772Z,100039.69
2023-05-14T08:57:33.610Z,100017.31
2023-05-14T09:00:01.465Z,100029.59
2023-05-14T09:02:30.605Z,100008.84
2023-05-14T09:05:00.198Z,100005.13
2023-05-14T09:07:27.478Z,99957.91
2023-05-14T09:09:55.049Z,99979.94
2023-05-14T09:12:22.482Z,100015.91
2023-05-14T09:14:50.911Z,99851.84
2023-05-14T09:17:18.568Z,99967.59
2023-05-14T09:19:49.442Z,100004.44
2023-05-14T09:22:17.663Z,99972.09
2023-05-14T09:24:45.314Z,99928.38
2023-05-14T09:27:21.509Z,100007.75
2023-05-14T09:29:48.547Z,99998.28
2023-05-14T09:32:15.542Z,99985.25
2023-05-14T09:34:42.400Z,99988.19
2023-05-14T09:37:09.809Z,99939.84
2023-05-14T09:39:37.926Z,99986.38
2023-05-14T09:42:05.343Z,99908.75
2023-05-14T09:44:32.289Z,99986.16
2023-05-14T09:46:59.304Z,99979.81
2023-05-14T09:49:26.235Z,99919.50
2023-05-14T09:51:53.017Z,99931.34
2023-05-14T09:54:19.901Z,99976.56
2023-05-14T09:56:46.697Z,99836.56
2023-05-14T09:59:13.489Z,99977.28
2023-05-14T10:01:43.267Z,99939.97
2023-05-14T10:04:11.507Z,99972.75
2023-05-14T10:06:39.835Z,99957.06
2023-05-14T10:09:13.826Z,99948.88
2023-05-14T10:11:44.662Z,99935.31
2023-05-14T10:14:23.249Z,99889.31
2023-05-14T10:16:51.554Z,99928.50
2023-05-14T10:19:27.452Z,99838.84
2023-05-14T10:22:07.592Z,99785.75
2023-05-14T10:24:35.381Z,99946.13
2023-05-14T10:27:02.731Z,99920.84
2023-05-14T10:29:34.129Z,99941.81
2023-05-14T10:32:06.449Z,99931.78
2023-05-14T10:34:41.290Z,99890.56
2023-05-14T10:37:20.963Z,99931.88
2023-05-14T10:39:49.709Z,99922.31
2023-05-14T10:42:21.979Z,99952.69
2023-05-14T10:44:56.956Z,99933.41
2023-05-14T10:47:26.879Z,99940.94
2023-05-14T10:49:56.867Z,99919.97
2023-05-14T10:52:24.853Z,99902.66
2023-05-14T10:54:51.891Z,99924.63
2023-05-14T10:57:20.675Z,99926.44
2023-05-14T10:59:49.594Z,99923.31
2023-05-14T11:02:31.312Z,99924.25
2023-05-14T11:04:59.006Z,99922.25
2023-05-14T11:07:30.041Z,99910.66
2023-05-14T11:10:05.641Z,99887.38
2023-05-14T11:12:34.160Z,99881.78
2023-05-14T11:15:04.605Z,99900.19
2023-05-14T11:17:33.458Z,99865.09
2023-05-14T11:20:00.413Z,99862.19
2023-05-14T11:22:27.648Z,99878.69
2023-05-14T11:24:54.641Z,99851.69
2023-05-14T11:27:23.915Z,99854.09
2023-05-14T11:29:51.075Z,99854.63
2023-05-14T11:32:18.889Z,99877.88
2023-05-14T11:34:47.109Z,99861.56
2023-05-14T11:37:16.174Z,99885.91
2023-05-14T11:39:48.371Z,99886.72
2023-05-14T11:42:18.762Z,99843.44
2023-05-14T11:44:49.057Z,99878.59
2023-05-14T11:47:17.617Z,99881.91
2023-05-14T11:49:45.045Z,99873.09
2023-05-14T11:52:14.200Z,99864.44
2023-05-14T11:54:42.856Z,99874.38
2023-05-14T11:57:10.820Z,99865.81
2023-05-14T11:59:38.641Z,99847.16
2023-05-14T12:02:08.757Z,99857.34
2023-05-14T12:04:37.673Z,99859.88
2023-05-14T12:07:12.596Z,99756.66
2023-05-14T12:09:45.011Z,99749.63
2023-05-14T12:12:12.537Z,99778.25
2023-05-14T12:14:42.668Z,99851.13
2023-05-14T12:17:17.884Z,99805.91
2023-05-14T12:19:46.150Z,99625.22
2023-05-14T12:22:16.354Z,99815.25
2023-05-14T12:24:43.739Z,99840.41
2023-05-14T12:27:11.054Z,99808.59
2023-05-14T12:29:41.608Z,99802.63
2023-05-14T12:32:09.827Z,99830.50
2023-05-14T12:34:38.204Z,99753.41
2023-05-14T12:37:06.946Z,99839.59
2023-05-14T12:39:34.812Z,99816.19
2023-05-14T12:42:01.959Z,99756.81
2023-05-14T12:44:30.324Z,99821.91
2023-05-14T12:46:57.860Z,99797.84
2023-05-14T12:49:24.857Z,99815.66
2023-05-14T12:51:57.391Z,99824.50
2023-05-14T12:54:31.768Z,99815.94
2023-05-14T12:56:59.085Z,99812.81
2023-05-14T12:59:25.814Z,99806.84
2023-05-14T13:01:52.569Z,99768.03
2023-05-14T13:04:19.377Z,99800.22
2023-05-14T13:06:46.438Z,99783.81
2023-05-14T13:09:13.251Z,99787.75
2023-05-14T13:11:40.126Z,99749.28
2023-05-14T13:14:06.899Z,99742.72
2023-05-14T13:16:33.725Z,99785.28
2023-05-14T13:19:00.617Z,99764.00
2023-05-14T13:21:27.466Z,99705.63
2023-05-14T13:23:54.535Z,99789.09
2023-05-14T13:26:21.689Z,99728.59
2023-05-14T13:28:48.539Z,99773.28
2023-05-14T13:31:15.854Z,99721.97
2023-05-14T13:33:43.804Z,99751.72
2023-05-14T13:36:13.444Z,99786.13
2023-05-14T13:38:40.247Z,99757.41
2023-05-14T13:41:08.375Z,99752.88
2023-05-14T13:43:35.838Z,99783.63
2023-05-14T13:46:04.401Z,99759.03
2023-05-14T13:48:31.488Z,99785.13
2023-05-14T13:50:59.336Z,99688.88
2023-05-14T13:53:28.701Z,99771.78
2023-05-14T13:56:00.233Z,99714.03
2023-05-14T13:58:27.916Z,99740.09
2023-05-14T14:00:54.790Z,99757.91
2023-05-14T14:03:21.694Z,99760.25
2023-05-14T14:05:48.606Z,99702.72
2023-05-14T14:08:23.427Z,99741.47
2023-05-14T14:10:54.528Z,99721.88
2023-05-14T14:13:22.945Z,99757.34
2023-05-14T14:15:50.209Z,99754.41
2023-05-14T14:18:17.026Z,99754.13
2023-05-14T14:20:43.930Z,99744.88
2023-05-14T14:23:10.650Z,99742.94
2023-05-14T14:25:37.442Z,99680.50
2023-05-14T14:28:04.238Z,99738.19
2023-05-14T14:30:32.283Z,99688.63
2023-05-14T14:33:01.281Z,99736.00
2023-05-14T14:35:28.301Z,99653.31
2023-05-14T14:37:55.750Z,99733.50
2023-05-14T14:40:23.995Z,99712.56
2023-05-14T14:42:51.090Z,99735.97
2023-05-14T14:45:18.385Z,99740.28
2023-05-14T14:47:46.667Z,99728.66
2023-05-14T14:50:13.735Z,99502.94
2023-05-14T14:52:45.429Z,99730.94
2023-05-14T14:55:14.055Z,99637.75
2023-05-14T14:57:40.870Z,99732.59
2023-05-14T15:00:09.278Z,99729.94
2023-05-14T15:02:38.422Z,99669.16
2023-05-14T15:05:06.009Z,99694.84
2023-05-14T15:07:33.109Z,99625.22
2023-05-14T15:10:00.116Z,99713.09
2023-05-14T15:12:26.952Z,99717.66
2023-05-14T15:14:53.826Z,99712.13
2023-05-14T15:17:20.661Z,99703.94
2023-05-14T15:19:47.656Z,99660.09
2023-05-14T15:22:14.434Z,99702.03
2023-05-14T15:24:41.217Z,99672.22
2023-05-14T15:27:08.080Z,99704.00
2023-05-14T15:29:35.068Z,99704.38
2023-05-14T15:32:03.238Z,99644.59
2023-05-14T15:34:30.052Z,99669.84
2023-05-14T15:36:56.851Z,99693.47
2023-05-14T15:39:23.788Z,99690.56
2023-05-14T15:41:50.516Z,99557.81
2023-05-14T15:44:17.211Z,99421.56
2023-05-14T15:46:44.377Z,99592.03
2023-05-14T15:49:11.150Z,99667.78
2023-05-14T15:51:37.931Z,99679.56
2023-05-14T15:54:04.900Z,99677.53
2023-05-14T15:56:31.710Z,99669.03
2023-05-14T15:58:58.373Z,99644.13
2023-05-14T16:01:25.452Z,99672.63
2023-05-14T16:03:53.101Z,99663.19
2023-05-14T16:06:20.088Z,99669.22
2023-05-14T16:08:46.852Z,99594.13
2023-05-14T16:11:13.692Z,99639.25
2023-05-14T16:13:41.606Z,99661.06
2023-05-14T16:16:08.506Z,99659.03
2023-05-14T16:18:35.344Z,99658.22
2023-05-14T16:21:04.894Z,99494.50
2023-05-14T16:23:34.880Z,99661.44
2023-05-14T16:26:03.391Z,99666.75
2023-05-14T16:28:30.436Z,99655.72
2023-05-14T16:30:57.179Z,99658.19
2023-05-14T16:33:24.147Z,99624.94
2023-05-14T16:35:51.457Z,99651.22
2023-05-14T16:38:19.326Z,99555.13
2023-05-14T16:40:46.088Z,99619.44
2023-05-14T16:43:13.085Z,99664.56
2023-05-14T16:45:41.167Z,99654.38
2023-05-14T16:48:07.966Z,99652.28
2023-05-14T16:50:37.827Z,99656.06
2023-05-14T16:53:04.768Z,99650.00
2023-05-14T16:55:31.593Z,99623.03
2023-05-14T16:57:58.902Z,99635.13
2023-05-14T17:00:26.510Z,99658.78
2023-05-14T17:02:54.469Z,99635.56
2023-05-14T17:05:22.062Z,99654.72
2023-05-14T17:07:49.278Z,99631.28
2023-05-14T17:10:16.610Z,99651.13
2023-05-14T17:12:43.513Z,99607.75
2023-05-14T17:15:11.063Z,99596.06
2023-05-14T17:17:38.422Z,99568.06
2023-05-14T17:22:32.951Z,99664.84
2023-05-14T17:25:00.026Z,99660.22
2023-05-14T17:27:29.205Z,99634.00
2023-05-14T17:29:56.268Z,99644.13
2023-05-14T17:32:23.051Z,99681.47
2023-05-14T17:34:50.145Z,99572.28
2023-05-14T17:37:17.170Z,99659.00
2023-05-14T17:39:43.864Z,99664.13
2023-05-14T17:42:10.963Z,99657.38
2023-05-14T17:44:37.840Z,99628.78
2023-05-14T17:47:05.340Z,99634.22
2023-05-14T17:49:32.113Z,99659.84
2023-05-14T17:51:59.097Z,99659.34
2023-05-14T17:54:25.902Z,99636.50
2023-05-14T17:56:53.100Z,99664.06
2023-05-14T17:59:22.467Z,99668.50
2023-05-14T18:01:51.761Z,99613.56
2023-05-14T18:04:18.394Z,99662.78
2023-05-14T18:06:45.799Z,99667.25
2023-05-14T18:09:12.620Z,99650.84
2023-05-14T18:11:39.471Z,99653.50
2023-05-14T18:14:06.284Z,99676.56
2023-05-14T18:16:33.257Z,99641.66
2023-05-14T18:19:02.948Z,99668.75
2023-05-14T18:21:29.816Z,99645.69
2023-05-14T18:23:56.570Z,99675.94
2023-05-14T18:26:23.372Z,99681.38
2023-05-14T18:28:50.209Z,99617.50
2023-05-14T18:31:17.001Z,99567.81
2023-05-14T18:33:43.704Z,99655.38
2023-05-14T18:36:11.285Z,99678.44
2023-05-14T18:38:38.585Z,99652.06
2023-05-14T18:41:05.527Z,99625.50
2023-05-14T18:43:32.335Z,99678.13
2023-05-14T18:45:59.540Z,99642.97
2023-05-14T18:48:26.443Z,99678.69
2023-05-14T18:50:53.453Z,99594.84
2023-05-14T18:53:20.234Z,99464.69
2023-05-14T18:55:47.092Z,99690.38
2023-05-14T18:58:14.579Z,99691.00
2023-05-14T19:00:41.957Z,99561.59
2023-05-14T19:03:09.014Z,99692.78
2023-05-14T19:05:35.904Z,99693.34
2023-05-14T19:08:02.880Z,99492.56
2023-05-14T19:10:29.949Z,99673.41
2023-05-14T19:13:04.574Z,99680.69
2023-05-14T19:16:28.145Z,99687.69
2023-05-14T19:18:58.971Z,99688.41
2023-05-14T19:21:26.216Z,99680.72
2023-05-14T19:23:53.510Z,99693.50
2023-05-14T19:26:21.772Z,99666.56
2023-05-14T19:28:52.760Z,99674.53
2023-05-14T19:31:19.874Z,99675.66
2023-05-14T19:33:48.305Z,99678.59
2023-05-14T19:36:15.097Z,99653.06
2023-05-14T19:38:41.845Z,99642.22
2023-05-14T19:41:08.562Z,99690.84
2023-05-14T19:43:35.345Z,99614.09
2023-05-14T19:46:04.454Z,99664.47
2023-05-14T19:48:32.236Z,99499.16
2023-05-14T19:51:00.382Z,99676.66
2023-05-14T19:53:30.660Z,99641.34
2023-05-14T19:55:57.804Z,99673.09
2023-05-14T19:58:25.441Z,99657.25
2023-05-14T20:00:56.762Z,99670.63
2023-05-14T20:03:27.992Z,99677.16
2023-05-14T20:05:55.520Z,99679.09
2023-05-14T20:08:22.683Z,99680.50
2023-05-14T20:10:53.257Z,99643.31
2023-05-14T20:13:20.149Z,99595.75
2023-05-14T20:15:50.153Z,99670.94
2023-05-14T20:18:16.993Z,99623.97
2023-05-14T20:20:44.589Z,99606.94
2023-05-14T20:23:11.409Z,99678.31
2023-05-14T20:25:39.603Z,99664.75
2023-05-14T20:28:07.091Z,99636.22
2023-05-14T20:30:35.745Z,99661.97
2023-05-14T20:33:04.098Z,99670.81
2023-05-14T20:36:06.581Z,99671.06
2023-05-14T20:38:34.889Z,99672.28
2023-05-14T20:41:12.187Z,99668.81
2023-05-14T20:43:39.095Z,99580.84
2023-05-14T20:46:07.653Z,99671.00
2023-05-14T20:48:34.506Z,99671.13
2023-05-14T20:51:07.986Z,99684.91
2023-05-14T20:53:35.084Z,99624.63
2023-05-14T20:56:01.856Z,99672.88
2023-05-14T20:58:28.857Z,99671.50
2023-05-14T21:01:02.886Z,99672.72
2023-05-14T21:03:34.422Z,99667.75
2023-05-14T21:06:02.622Z,99684.28
2023-05-14T21:08:32.482Z,99675.31
2023-05-14T21:10:59.243Z,99663.69
2023-05-14T21:13:25.967Z,99666.41
2023-05-14T21:15:52.850Z,99589.44
2023-05-14T21:18:19.632Z,99643.47
2023-05-14T21:20:47.564Z,99670.63
2023-05-14T21:23:14.728Z,99637.41
2023-05-14T21:25:41.563Z,99664.84
2023-05-14T21:28:08.657Z,99560.75
2023-05-14T21:30:36.070Z,99589.91
2023-05-14T21:33:03.154Z,99634.19
2023-05-14T21:35:30.024Z,99656.72
2023-05-14T21:37:56.778Z,99583.66
2023-05-14T21:40:23.563Z,99659.47
2023-05-14T21:42:50.387Z,99643.13
2023-05-14T21:45:17.184Z,99634.25
2023-05-14T21:47:43.964Z,99637.81
2023-05-14T21:50:11.059Z,99670.59
2023-05-14T21:52:38.410Z,99468.47
2023-05-14T21:55:05.563Z,99661.00
2023-05-14T21:57:34.583Z,99661.50
2023-05-14T22:00:02.224Z,99659.53
2023-05-14T22:02:32.097Z,99653.13
2023-05-14T22:04:58.896Z,99609.84
2023-05-14T22:07:25.635Z,99666.28
2023-05-14T22:09:52.878Z,99605.09
2023-05-14T22:12:19.667Z,99633.88
2023-05-14T22:14:46.480Z,99643.75
2023-05-14T22:17:32.727Z,99672.53
2023-05-14T22:20:00.876Z,99595.09
2023-05-14T22:22:27.613Z,99652.31
2023-05-14T22:24:54.791Z,99584.69
2023-05-14T22:27:21.507Z,99631.84
2023-05-14T22:29:48.295Z,99618.34
2023-05-14T22:32:15.368Z,99654.19
2023-05-14T22:34:42.192Z,99587.66
2023-05-14T22:37:09.133Z,99688.50
2023-05-14T22:39:35.946Z,99608.06
2023-05-14T22:42:02.740Z,99651.88
2023-05-14T22:44:30.019Z,99647.97
2023-05-14T22:46:57.216Z,99624.81
2023-05-14T22:49:24.106Z,99534.84
2023-05-14T22:51:54.206Z,99649.03
2023-05-14T22:54:21.002Z,99647.75
2023-05-14T22:56:47.813Z,99613.66
2023-05-14T22:59:14.564Z,99456.69
2023-05-14T23:01:41.385Z,99579.59
2023-05-14T23:04:08.257Z,99645.50
2023-05-14T23:06:35.482Z,99464.97
2023-05-14T23:09:02.293Z,99642.41
2023-05-14T23:11:29.043Z,99638.13
2023-05-14T23:13:55.958Z,99639.69
2023-05-14T23:16:22.819Z,99636.00
2023-05-14T23:18:49.749Z,99632.56
2023-05-14T23:21:16.671Z,99340.50
2023-05-14T23:23:43.483Z,99614.25
2023-05-14T23:26:10.453Z,99439.63
2023-05-14T23:28:37.256Z,99635.06
2023-05-14T23:31:04.163Z,99612.59
2023-05-14T23:33:30.955Z,99643.84
2023-05-14T23:35:58.019Z,99618.88
2023-05-14T23:38:24.884Z,99601.31
2023-05-14T23:40:51.804Z,99614.13
2023-05-14T23:43:18.590Z,99550.06
2023-05-14T23:45:45.546Z,99633.38
2023-05-14T23:48:12.627Z,99470.44
2023-05-14T23:50:39.356Z,99515.50
2023-05-14T23:53:06.089Z,99515.78
2023-05-14T23:55:32.906Z,99538.94
2023-05-14T23:57:59.935Z,99623.75
